sensor_id;sensor_type;location;lat;lon;timestamp;P1;durP1;ratioP1;P2;durP2;ratioP2
27127;SDS011;14660;49.008;8.390;2022-11-04T00:02:02;3.78;;;2.08;;
27127;SDS011;14660;49.008;8.390;2022-11-04T00:04:33;2.75;;;1.83;;
27127;SDS011;14660;49.008;8.390;2022-11-04T00:07:02;2.25;;;1.95;;
27127;SDS011;14660;49.008;8.390;2022-11-04T00:09:48;5.88;;;1.70;;
27127;SDS011;14660;49.008;8.390;2022-11-04T00:12:15;4.55;;;2.15;;
27127;SDS011;14660;49.008;8.390;2022-11-04T00:14:52;3.72;;;1.75;;
27127;SDS011;14660;49.008;8.390;2022-11-04T00:17:39;4.13;;;2.10;;
27127;SDS011;14660;49.008;8.390;2022-11-04T00:20:06;2.70;;;1.50;;
27127;SDS011;14660;49.008;8.390;2022-11-04T00:22:55;2.78;;;1.40;;
27127;SDS011;14660;49.008;8.390;2022-11-04T00:25:40;4.18;;;1.98;;
27127;SDS011;14660;49.008;8.390;2022-11-04T00:28:26;1.90;;;1.38;;
27127;SDS011;14660;49.008;8.390;2022-11-04T00:31:08;3.45;;;1.30;;
27127;SDS011;14660;49.008;8.390;2022-11-04T00:33:57;2.10;;;1.15;;
27127;SDS011;14660;49.008;8.390;2022-11-04T00:36:24;2.40;;;0.85;;
27127;SDS011;14660;49.008;8.390;2022-11-04T00:38:52;1.38;;;0.82;;
27127;SDS011;14660;49.008;8.390;2022-11-04T00:41:21;3.90;;;1.08;;
27127;SDS011;14660;49.008;8.390;2022-11-04T00:43:57;2.08;;;1.13;;
27127;SDS011;14660;49.008;8.390;2022-11-04T00:46:26;4.13;;;1.05;;
27127;SDS011;14660;49.008;8.390;2022-11-04T00:48:54;2.17;;;0.80;;
27127;SDS011;14660;49.008;8.390;2022-11-04T00:51:19;2.05;;;0.73;;
27127;SDS011;14660;49.008;8.390;2022-11-04T00:53:48;1.58;;;0.90;;
27127;SDS011;14660;49.008;8.390;2022-11-04T00:56:16;0.80;;;0.70;;
27127;SDS011;14660;49.008;8.390;2022-11-04T00:58:43;1.17;;;0.63;;
27127;SDS011;14660;49.008;8.390;2022-11-04T01:01:12;1.17;;;0.77;;
27127;SDS011;14660;49.008;8.390;2022-11-04T01:03:45;1.02;;;0.63;;
27127;SDS011;14660;49.008;8.390;2022-11-04T01:06:17;2.80;;;1.02;;
27127;SDS011;14660;49.008;8.390;2022-11-04T01:08:46;1.88;;;0.60;;
27127;SDS011;14660;49.008;8.390;2022-11-04T01:11:13;1.45;;;0.70;;
27127;SDS011;14660;49.008;8.390;2022-11-04T01:13:42;1.05;;;0.75;;
27127;SDS011;14660;49.008;8.390;2022-11-04T01:16:10;1.95;;;0.75;;
27127;SDS011;14660;49.008;8.390;2022-11-04T01:18:39;2.55;;;0.90;;
27127;SDS011;14660;49.008;8.390;2022-11-04T01:21:07;1.33;;;0.75;;
27127;SDS011;14660;49.008;8.390;2022-11-04T01:23:38;1.42;;;0.55;;
27127;SDS011;14660;49.008;8.390;2022-11-04T01:26:06;2.65;;;0.88;;
27127;SDS011;14660;49.008;8.390;2022-11-04T01:28:38;1.27;;;0.70;;
27127;SDS011;14660;49.008;8.390;2022-11-04T01:31:07;3.00;;;0.70;;
27127;SDS011;14660;49.008;8.390;2022-11-04T01:33:36;2.17;;;0.85;;
27127;SDS011;14660;49.008;8.390;2022-11-04T01:36:04;1.20;;;0.68;;
27127;SDS011;14660;49.008;8.390;2022-11-04T01:38:33;1.33;;;0.70;;
27127;SDS011;14660;49.008;8.390;2022-11-04T01:41:00;2.40;;;0.80;;
27127;SDS011;14660;49.008;8.390;2022-11-04T01:46:51;1.67;;;0.60;;
27127;SDS011;14660;49.008;8.390;2022-11-04T01:52:06;2.17;;;0.93;;
27127;SDS011;14660;49.008;8.390;2022-11-04T01:54:37;2.33;;;0.85;;
27127;SDS011;14660;49.008;8.390;2022-11-04T01:57:06;1.92;;;0.65;;
27127;SDS011;14660;49.008;8.390;2022-11-04T01:59:37;0.80;;;0.65;;
27127;SDS011;14660;49.008;8.390;2022-11-04T02:02:06;0.85;;;0.50;;
27127;SDS011;14660;49.008;8.390;2022-11-04T02:04:33;1.27;;;0.40;;
27127;SDS011;14660;49.008;8.390;2022-11-04T02:07:00;1.58;;;0.60;;
27127;SDS011;14660;49.008;8.390;2022-11-04T02:09:31;2.90;;;0.50;;
27127;SDS011;14660;49.008;8.390;2022-11-04T02:11:59;0.82;;;0.30;;
27127;SDS011;14660;49.008;8.390;2022-11-04T02:14:48;1.77;;;0.93;;
27127;SDS011;14660;49.008;8.390;2022-11-04T02:41:24;1.65;;;0.60;;
27127;SDS011;14660;49.008;8.390;2022-11-04T02:47:21;2.00;;;0.60;;
27127;SDS011;14660;49.008;8.390;2022-11-04T02:55:48;0.93;;;0.60;;
27127;SDS011;14660;49.008;8.390;2022-11-04T02:58:24;2.83;;;0.80;;
27127;SDS011;14660;49.008;8.390;2022-11-04T03:01:00;2.53;;;0.85;;
27127;SDS011;14660;49.008;8.390;2022-11-04T03:03:32;1.40;;;0.63;;
27127;SDS011;14660;49.008;8.390;2022-11-04T03:06:03;2.53;;;0.95;;
27127;SDS011;14660;49.008;8.390;2022-11-04T03:08:34;2.17;;;0.70;;
27127;SDS011;14660;49.008;8.390;2022-11-04T03:11:15;0.90;;;0.60;;
27127;SDS011;14660;49.008;8.390;2022-11-04T03:16:57;1.80;;;0.75;;
27127;SDS011;14660;49.008;8.390;2022-11-04T03:22:10;1.33;;;0.57;;
27127;SDS011;14660;49.008;8.390;2022-11-04T03:24:40;1.30;;;0.75;;
27127;SDS011;14660;49.008;8.390;2022-11-04T03:30:17;2.80;;;0.55;;
27127;SDS011;14660;49.008;8.390;2022-11-04T03:35:47;1.42;;;0.80;;
27127;SDS011;14660;49.008;8.390;2022-11-04T03:38:15;0.70;;;0.52;;
27127;SDS011;14660;49.008;8.390;2022-11-04T03:40:42;1.83;;;0.75;;
27127;SDS011;14660;49.008;8.390;2022-11-04T03:43:13;2.10;;;0.75;;
27127;SDS011;14660;49.008;8.390;2022-11-04T03:45:44;1.92;;;0.70;;
27127;SDS011;14660;49.008;8.390;2022-11-04T03:48:13;1.65;;;0.45;;
27127;SDS011;14660;49.008;8.390;2022-11-04T03:50:42;0.90;;;0.50;;
27127;SDS011;14660;49.008;8.390;2022-11-04T03:53:13;3.97;;;0.60;;
27127;SDS011;14660;49.008;8.390;2022-11-04T04:01:55;1.42;;;0.63;;
27127;SDS011;14660;49.008;8.390;2022-11-04T04:04:38;2.97;;;0.82;;
27127;SDS011;14660;49.008;8.390;2022-11-04T04:07:34;1.27;;;0.95;;
27127;SDS011;14660;49.008;8.390;2022-11-04T04:10:51;1.77;;;0.82;;
27127;SDS011;14660;49.008;8.390;2022-11-04T04:17:05;1.83;;;0.90;;
27127;SDS011;14660;49.008;8.390;2022-11-04T04:19:56;1.35;;;0.70;;
27127;SDS011;14660;49.008;8.390;2022-11-04T04:22:27;1.38;;;0.93;;
27127;SDS011;14660;49.008;8.390;2022-11-04T04:25:07;1.73;;;1.13;;
27127;SDS011;14660;49.008;8.390;2022-11-04T04:27:55;2.03;;;0.75;;
27127;SDS011;14660;49.008;8.390;2022-11-04T04:30:27;0.45;;;0.45;;
27127;SDS011;14660;49.008;8.390;2022-11-04T04:32:57;3.42;;;0.93;;
27127;SDS011;14660;49.008;8.390;2022-11-04T04:35:32;1.40;;;0.82;;
27127;SDS011;14660;49.008;8.390;2022-11-04T04:38:14;2.67;;;1.10;;
27127;SDS011;14660;49.008;8.390;2022-11-04T04:41:36;1.17;;;0.75;;
27127;SDS011;14660;49.008;8.390;2022-11-04T04:44:21;2.63;;;2.22;;
27127;SDS011;14660;49.008;8.390;2022-11-04T04:47:10;1.95;;;0.85;;
27127;SDS011;14660;49.008;8.390;2022-11-04T04:49:51;1.65;;;0.68;;
27127;SDS011;14660;49.008;8.390;2022-11-04T04:52:19;3.13;;;0.93;;
27127;SDS011;14660;49.008;8.390;2022-11-04T04:54:51;2.95;;;0.88;;
27127;SDS011;14660;49.008;8.390;2022-11-04T04:57:18;2.03;;;0.75;;
27127;SDS011;14660;49.008;8.390;2022-11-04T04:59:45;1.40;;;0.68;;
27127;SDS011;14660;49.008;8.390;2022-11-04T05:02:12;2.20;;;1.08;;
27127;SDS011;14660;49.008;8.390;2022-11-04T05:04:46;2.45;;;0.80;;
27127;SDS011;14660;49.008;8.390;2022-11-04T05:07:14;1.77;;;0.75;;
27127;SDS011;14660;49.008;8.390;2022-11-04T05:09:40;2.17;;;1.20;;
27127;SDS011;14660;49.008;8.390;2022-11-04T05:12:07;1.00;;;0.80;;
27127;SDS011;14660;49.008;8.390;2022-11-04T05:14:35;1.75;;;0.70;;
27127;SDS011;14660;49.008;8.390;2022-11-04T05:17:03;1.65;;;0.57;;
27127;SDS011;14660;49.008;8.390;2022-11-04T05:19:30;3.40;;;0.80;;
27127;SDS011;14660;49.008;8.390;2022-11-04T05:21:57;3.50;;;1.00;;
27127;SDS011;14660;49.008;8.390;2022-11-04T05:24:24;2.47;;;0.80;;
27127;SDS011;14660;49.008;8.390;2022-11-04T05:26:51;4.80;;;1.40;;
27127;SDS011;14660;49.008;8.390;2022-11-04T05:29:18;1.98;;;0.70;;
27127;SDS011;14660;49.008;8.390;2022-11-04T05:31:45;2.10;;;0.77;;
27127;SDS011;14660;49.008;8.390;2022-11-04T05:34:13;2.05;;;0.68;;
27127;SDS011;14660;49.008;8.390;2022-11-04T05:36:40;2.05;;;0.68;;
27127;SDS011;14660;49.008;8.390;2022-11-04T05:39:05;4.95;;;0.70;;
27127;SDS011;14660;49.008;8.390;2022-11-04T05:41:33;1.65;;;0.52;;
27127;SDS011;14660;49.008;8.390;2022-11-04T05:44:02;2.40;;;0.98;;
27127;SDS011;14660;49.008;8.390;2022-11-04T05:46:30;5.22;;;1.38;;
27127;SDS011;14660;49.008;8.390;2022-11-04T05:48:56;5.80;;;2.13;;
27127;SDS011;14660;49.008;8.390;2022-11-04T05:51:25;3.53;;;0.80;;
27127;SDS011;14660;49.008;8.390;2022-11-04T05:53:53;2.15;;;0.70;;
27127;SDS011;14660;49.008;8.390;2022-11-04T05:56:20;2.38;;;1.02;;
27127;SDS011;14660;49.008;8.390;2022-11-04T05:58:47;1.30;;;1.20;;
27127;SDS011;14660;49.008;8.390;2022-11-04T06:04:04;2.15;;;0.82;;
27127;SDS011;14660;49.008;8.390;2022-11-04T06:06:32;4.80;;;1.13;;
27127;SDS011;14660;49.008;8.390;2022-11-04T06:09:04;1.15;;;0.80;;
27127;SDS011;14660;49.008;8.390;2022-11-04T06:11:31;2.33;;;0.88;;
27127;SDS011;14660;49.008;8.390;2022-11-04T06:13:59;2.28;;;0.80;;
27127;SDS011;14660;49.008;8.390;2022-11-04T06:16:25;1.50;;;0.70;;
27127;SDS011;14660;49.008;8.390;2022-11-04T06:18:52;1.70;;;0.70;;
27127;SDS011;14660;49.008;8.390;2022-11-04T06:24:06;3.25;;;1.50;;
27127;SDS011;14660;49.008;8.390;2022-11-04T06:26:33;3.53;;;1.00;;
27127;SDS011;14660;49.008;8.390;2022-11-04T06:29:01;3.28;;;1.00;;
27127;SDS011;14660;49.008;8.390;2022-11-04T06:31:29;1.52;;;0.80;;
27127;SDS011;14660;49.008;8.390;2022-11-04T06:33:58;2.03;;;0.60;;
27127;SDS011;14660;49.008;8.390;2022-11-04T06:36:24;2.17;;;0.90;;
27127;SDS011;14660;49.008;8.390;2022-11-04T06:38:52;2.08;;;0.93;;
27127;SDS011;14660;49.008;8.390;2022-11-04T06:41:23;2.78;;;1.15;;
27127;SDS011;14660;49.008;8.390;2022-11-04T06:43:48;2.55;;;1.30;;
27127;SDS011;14660;49.008;8.390;2022-11-04T06:49:04;3.65;;;0.90;;
27127;SDS011;14660;49.008;8.390;2022-11-04T06:51:33;2.22;;;0.90;;
27127;SDS011;14660;49.008;8.390;2022-11-04T06:53:59;4.13;;;0.95;;
27127;SDS011;14660;49.008;8.390;2022-11-04T06:56:28;4.70;;;0.90;;
27127;SDS011;14660;49.008;8.390;2022-11-04T06:58:55;1.13;;;0.88;;
27127;SDS011;14660;49.008;8.390;2022-11-04T07:01:26;3.75;;;1.33;;
27127;SDS011;14660;49.008;8.390;2022-11-04T07:03:58;3.38;;;1.48;;
27127;SDS011;14660;49.008;8.390;2022-11-04T07:06:34;3.05;;;1.33;;
27127;SDS011;14660;49.008;8.390;2022-11-04T07:09:02;2.85;;;1.27;;
27127;SDS011;14660;49.008;8.390;2022-11-04T07:11:31;4.15;;;1.90;;
27127;SDS011;14660;49.008;8.390;2022-11-04T07:13:58;1.73;;;1.10;;
27127;SDS011;14660;49.008;8.390;2022-11-04T07:16:25;3.28;;;1.65;;
27127;SDS011;14660;49.008;8.390;2022-11-04T07:18:55;4.18;;;1.23;;
27127;SDS011;14660;49.008;8.390;2022-11-04T07:21:23;2.45;;;1.55;;
27127;SDS011;14660;49.008;8.390;2022-11-04T07:23:51;6.70;;;1.80;;
27127;SDS011;14660;49.008;8.390;2022-11-04T07:26:18;3.88;;;1.80;;
27127;SDS011;14660;49.008;8.390;2022-11-04T07:28:47;2.40;;;1.65;;
27127;SDS011;14660;49.008;8.390;2022-11-04T07:31:16;3.65;;;1.33;;
27127;SDS011;14660;49.008;8.390;2022-11-04T07:33:44;2.67;;;1.65;;
27127;SDS011;14660;49.008;8.390;2022-11-04T07:36:17;4.05;;;1.38;;
27127;SDS011;14660;49.008;8.390;2022-11-04T07:38:45;3.63;;;1.63;;
27127;SDS011;14660;49.008;8.390;2022-11-04T07:41:12;2.75;;;1.75;;
27127;SDS011;14660;49.008;8.390;2022-11-04T07:43:40;7.60;;;3.10;;
27127;SDS011;14660;49.008;8.390;2022-11-04T07:46:08;2.50;;;1.75;;
27127;SDS011;14660;49.008;8.390;2022-11-04T07:48:37;4.60;;;1.30;;
27127;SDS011;14660;49.008;8.390;2022-11-04T07:51:07;5.25;;;1.38;;
27127;SDS011;14660;49.008;8.390;2022-11-04T07:53:38;3.47;;;1.30;;
27127;SDS011;14660;49.008;8.390;2022-11-04T07:56:05;5.70;;;1.25;;
27127;SDS011;14660;49.008;8.390;2022-11-04T07:58:33;5.88;;;1.55;;
27127;SDS011;14660;49.008;8.390;2022-11-04T08:01:03;2.53;;;1.00;;
27127;SDS011;14660;49.008;8.390;2022-11-04T08:03:32;2.88;;;0.93;;
27127;SDS011;14660;49.008;8.390;2022-11-04T08:06:01;6.10;;;1.20;;
27127;SDS011;14660;49.008;8.390;2022-11-04T08:08:29;3.42;;;1.30;;
27127;SDS011;14660;49.008;8.390;2022-11-04T08:10:57;2.45;;;1.30;;
27127;SDS011;14660;49.008;8.390;2022-11-04T08:13:29;2.30;;;1.10;;
27127;SDS011;14660;49.008;8.390;2022-11-04T08:15:59;2.03;;;0.85;;
27127;SDS011;14660;49.008;8.390;2022-11-04T08:18:29;2.22;;;1.00;;
27127;SDS011;14660;49.008;8.390;2022-11-04T08:20:58;3.40;;;1.23;;
27127;SDS011;14660;49.008;8.390;2022-11-04T08:23:27;5.30;;;0.90;;
27127;SDS011;14660;49.008;8.390;2022-11-04T08:26:09;3.45;;;1.05;;
27127;SDS011;14660;49.008;8.390;2022-11-04T08:28:38;3.42;;;1.25;;
27127;SDS011;14660;49.008;8.390;2022-11-04T08:31:27;1.95;;;0.70;;
27127;SDS011;14660;49.008;8.390;2022-11-04T08:33:55;2.05;;;1.40;;
27127;SDS011;14660;49.008;8.390;2022-11-04T08:36:29;3.60;;;1.00;;
27127;SDS011;14660;49.008;8.390;2022-11-04T08:39:03;2.90;;;1.10;;
27127;SDS011;14660;49.008;8.390;2022-11-04T08:41:50;3.60;;;1.50;;
27127;SDS011;14660;49.008;8.390;2022-11-04T08:44:25;1.73;;;0.88;;
27127;SDS011;14660;49.008;8.390;2022-11-04T08:46:52;3.10;;;1.10;;
27127;SDS011;14660;49.008;8.390;2022-11-04T08:49:20;2.60;;;1.20;;
27127;SDS011;14660;49.008;8.390;2022-11-04T08:51:48;2.65;;;1.08;;
27127;SDS011;14660;49.008;8.390;2022-11-04T08:54:23;3.30;;;1.70;;
27127;SDS011;14660;49.008;8.390;2022-11-04T08:56:54;1.98;;;1.40;;
27127;SDS011;14660;49.008;8.390;2022-11-04T08:59:21;2.08;;;0.80;;
27127;SDS011;14660;49.008;8.390;2022-11-04T09:01:47;3.40;;;0.90;;
27127;SDS011;14660;49.008;8.390;2022-11-04T09:04:14;3.03;;;1.30;;
27127;SDS011;14660;49.008;8.390;2022-11-04T09:06:42;4.35;;;1.30;;
27127;SDS011;14660;49.008;8.390;2022-11-04T09:09:11;3.03;;;1.42;;
27127;SDS011;14660;49.008;8.390;2022-11-04T09:11:40;5.47;;;1.17;;
27127;SDS011;14660;49.008;8.390;2022-11-04T09:14:07;5.10;;;1.17;;
27127;SDS011;14660;49.008;8.390;2022-11-04T09:16:36;4.70;;;2.00;;
27127;SDS011;14660;49.008;8.390;2022-11-04T09:19:05;2.80;;;1.40;;
27127;SDS011;14660;49.008;8.390;2022-11-04T09:21:33;6.32;;;1.05;;
27127;SDS011;14660;49.008;8.390;2022-11-04T09:24:00;3.72;;;1.00;;
27127;SDS011;14660;49.008;8.390;2022-11-04T09:26:27;5.93;;;1.35;;
27127;SDS011;14660;49.008;8.390;2022-11-04T09:28:53;3.60;;;1.25;;
27127;SDS011;14660;49.008;8.390;2022-11-04T09:31:25;3.03;;;1.17;;
27127;SDS011;14660;49.008;8.390;2022-11-04T09:33:55;3.75;;;1.08;;
27127;SDS011;14660;49.008;8.390;2022-11-04T09:36:22;3.58;;;1.10;;
27127;SDS011;14660;49.008;8.390;2022-11-04T09:38:50;4.15;;;1.77;;
27127;SDS011;14660;49.008;8.390;2022-11-04T09:47:29;2.78;;;1.45;;
27127;SDS011;14660;49.008;8.390;2022-11-04T09:49:59;1.67;;;1.15;;
27127;SDS011;14660;49.008;8.390;2022-11-04T09:52:33;3.75;;;0.88;;
27127;SDS011;14660;49.008;8.390;2022-11-04T09:57:59;3.25;;;0.70;;
27127;SDS011;14660;49.008;8.390;2022-11-04T10:00:28;5.75;;;1.58;;
27127;SDS011;14660;49.008;8.390;2022-11-04T10:24:41;4.00;;;0.70;;
27127;SDS011;14660;49.008;8.390;2022-11-04T10:27:29;4.45;;;1.20;;
27127;SDS011;14660;49.008;8.390;2022-11-04T10:30:18;5.77;;;1.03;;
27127;SDS011;14660;49.008;8.390;2022-11-04T10:36:04;3.28;;;0.90;;
27127;SDS011;14660;49.008;8.390;2022-11-04T10:41:32;4.15;;;1.27;;
27127;SDS011;14660;49.008;8.390;2022-11-04T10:51:56;4.82;;;1.85;;
27127;SDS011;14660;49.008;8.390;2022-11-04T10:54:25;4.63;;;0.82;;
27127;SDS011;14660;49.008;8.390;2022-11-04T10:56:56;6.20;;;0.95;;
27127;SDS011;14660;49.008;8.390;2022-11-04T10:59:58;7.30;;;1.02;;
27127;SDS011;14660;49.008;8.390;2022-11-04T11:05:23;3.47;;;1.08;;
27127;SDS011;14660;49.008;8.390;2022-11-04T11:07:51;6.80;;;1.52;;
27127;SDS011;14660;49.008;8.390;2022-11-04T11:13:33;5.03;;;0.90;;
27127;SDS011;14660;49.008;8.390;2022-11-04T11:16:19;5.35;;;0.90;;
27127;SDS011;14660;49.008;8.390;2022-11-04T11:21:57;4.78;;;1.10;;
27127;SDS011;14660;49.008;8.390;2022-11-04T11:24:25;2.53;;;1.23;;
27127;SDS011;14660;49.008;8.390;2022-11-04T11:27:09;3.83;;;1.38;;
27127;SDS011;14660;49.008;8.390;2022-11-04T11:29:48;3.58;;;1.02;;
27127;SDS011;14660;49.008;8.390;2022-11-04T11:32:33;5.18;;;1.10;;
27127;SDS011;14660;49.008;8.390;2022-11-04T11:35:18;4.53;;;1.48;;
27127;SDS011;14660;49.008;8.390;2022-11-04T11:37:53;3.53;;;1.17;;
27127;SDS011;14660;49.008;8.390;2022-11-04T11:43:06;2.70;;;0.90;;
27127;SDS011;14660;49.008;8.390;2022-11-04T11:51:09;5.00;;;0.70;;
27127;SDS011;14660;49.008;8.390;2022-11-04T11:53:37;5.60;;;1.48;;
27127;SDS011;14660;49.008;8.390;2022-11-04T11:56:35;3.28;;;0.70;;
27127;SDS011;14660;49.008;8.390;2022-11-04T12:05:02;3.47;;;1.02;;
27127;SDS011;14660;49.008;8.390;2022-11-04T12:13:33;1.48;;;0.60;;
27127;SDS011;14660;49.008;8.390;2022-11-04T13:12:33;2.72;;;0.60;;
27127;SDS011;14660;49.008;8.390;2022-11-04T13:17:51;2.13;;;0.80;;
27127;SDS011;14660;49.008;8.390;2022-11-04T13:23:40;5.53;;;2.50;;
27127;SDS011;14660;49.008;8.390;2022-11-04T13:26:29;6.40;;;1.10;;
27127;SDS011;14660;49.008;8.390;2022-11-04T13:29:06;2.83;;;0.80;;
27127;SDS011;14660;49.008;8.390;2022-11-04T13:37:51;2.58;;;1.38;;
27127;SDS011;14660;49.008;8.390;2022-11-04T13:40:30;1.45;;;0.40;;
27127;SDS011;14660;49.008;8.390;2022-11-04T13:46:16;2.45;;;0.55;;
27127;SDS011;14660;49.008;8.390;2022-11-04T13:57:46;2.47;;;0.73;;
27127;SDS011;14660;49.008;8.390;2022-11-04T14:00:20;2.63;;;0.50;;
27127;SDS011;14660;49.008;8.390;2022-11-04T14:20:30;3.15;;;0.52;;
27127;SDS011;14660;49.008;8.390;2022-11-04T14:22:58;3.30;;;0.50;;
27127;SDS011;14660;49.008;8.390;2022-11-04T14:25:37;2.22;;;0.70;;
27127;SDS011;14660;49.008;8.390;2022-11-04T14:33:38;2.35;;;0.40;;
27127;SDS011;14660;49.008;8.390;2022-11-04T14:42:00;3.25;;;0.60;;
27127;SDS011;14660;49.008;8.390;2022-11-04T14:50:03;2.47;;;0.65;;
27127;SDS011;14660;49.008;8.390;2022-11-04T14:55:24;1.52;;;0.52;;
27127;SDS011;14660;49.008;8.390;2022-11-04T14:57:58;3.70;;;0.70;;
27127;SDS011;14660;49.008;8.390;2022-11-04T15:01:01;4.32;;;0.80;;
27127;SDS011;14660;49.008;8.390;2022-11-04T15:03:36;0.82;;;0.45;;
27127;SDS011;14660;49.008;8.390;2022-11-04T15:06:05;1.10;;;0.47;;
27127;SDS011;14660;49.008;8.390;2022-11-04T15:08:33;4.65;;;1.02;;
27127;SDS011;14660;49.008;8.390;2022-11-04T15:11:15;0.90;;;0.63;;
27127;SDS011;14660;49.008;8.390;2022-11-04T15:14:25;2.88;;;0.73;;
27127;SDS011;14660;49.008;8.390;2022-11-04T15:16:53;3.65;;;0.93;;
27127;SDS011;14660;49.008;8.390;2022-11-04T15:19:32;1.25;;;0.47;;
27127;SDS011;14660;49.008;8.390;2022-11-04T15:22:00;3.60;;;0.70;;
27127;SDS011;14660;49.008;8.390;2022-11-04T15:24:29;1.55;;;0.50;;
27127;SDS011;14660;49.008;8.390;2022-11-04T15:26:57;2.45;;;0.60;;
27127;SDS011;14660;49.008;8.390;2022-11-04T15:29:30;1.35;;;0.63;;
27127;SDS011;14660;49.008;8.390;2022-11-04T15:32:00;1.60;;;0.40;;
27127;SDS011;14660;49.008;8.390;2022-11-04T15:34:29;2.15;;;0.50;;
27127;SDS011;14660;49.008;8.390;2022-11-04T15:37:01;1.05;;;0.57;;
27127;SDS011;14660;49.008;8.390;2022-11-04T15:42:22;2.55;;;1.52;;
27127;SDS011;14660;49.008;8.390;2022-11-04T15:56:52;1.65;;;0.50;;
27127;SDS011;14660;49.008;8.390;2022-11-04T15:59:38;2.13;;;0.98;;
27127;SDS011;14660;49.008;8.390;2022-11-04T16:02:31;0.95;;;0.60;;
27127;SDS011;14660;49.008;8.390;2022-11-04T16:08:21;5.63;;;3.60;;
27127;SDS011;14660;49.008;8.390;2022-11-04T16:11:06;5.45;;;1.85;;
27127;SDS011;14660;49.008;8.390;2022-11-04T16:13:41;5.70;;;3.65;;
27127;SDS011;14660;49.008;8.390;2022-11-04T16:16:18;5.43;;;2.03;;
27127;SDS011;14660;49.008;8.390;2022-11-04T16:19:04;3.83;;;2.00;;
27127;SDS011;14660;49.008;8.390;2022-11-04T16:21:41;5.57;;;1.90;;
27127;SDS011;14660;49.008;8.390;2022-11-04T16:24:15;4.40;;;2.13;;
27127;SDS011;14660;49.008;8.390;2022-11-04T16:26:50;3.95;;;2.13;;
27127;SDS011;14660;49.008;8.390;2022-11-04T16:29:22;5.45;;;1.33;;
27127;SDS011;14660;49.008;8.390;2022-11-04T16:34:56;7.85;;;3.17;;
27127;SDS011;14660;49.008;8.390;2022-11-04T16:37:26;17.25;;;7.15;;
27127;SDS011;14660;49.008;8.390;2022-11-04T16:39:53;2.90;;;1.92;;
27127;SDS011;14660;49.008;8.390;2022-11-04T16:42:20;4.72;;;2.33;;
27127;SDS011;14660;49.008;8.390;2022-11-04T16:44:49;2.70;;;1.08;;
27127;SDS011;14660;49.008;8.390;2022-11-04T16:47:18;6.82;;;1.98;;
27127;SDS011;14660;49.008;8.390;2022-11-04T16:49:46;6.10;;;2.10;;
27127;SDS011;14660;49.008;8.390;2022-11-04T16:52:16;1.77;;;1.20;;
27127;SDS011;14660;49.008;8.390;2022-11-04T16:54:48;4.90;;;1.38;;
27127;SDS011;14660;49.008;8.390;2022-11-04T16:57:22;5.20;;;1.55;;
27127;SDS011;14660;49.008;8.390;2022-11-04T16:59:50;3.13;;;1.48;;
27127;SDS011;14660;49.008;8.390;2022-11-04T17:05:07;3.65;;;1.50;;
27127;SDS011;14660;49.008;8.390;2022-11-04T17:07:37;3.50;;;1.67;;
27127;SDS011;14660;49.008;8.390;2022-11-04T17:10:11;8.18;;;3.30;;
27127;SDS011;14660;49.008;8.390;2022-11-04T17:12:39;76.80;;;33.72;;
27127;SDS011;14660;49.008;8.390;2022-11-04T17:15:08;36.35;;;17.23;;
27127;SDS011;14660;49.008;8.390;2022-11-04T17:17:37;28.48;;;14.60;;
27127;SDS011;14660;49.008;8.390;2022-11-04T17:20:04;22.88;;;12.18;;
27127;SDS011;14660;49.008;8.390;2022-11-04T17:22:42;26.70;;;13.00;;
27127;SDS011;14660;49.008;8.390;2022-11-04T17:25:17;17.70;;;9.07;;
27127;SDS011;14660;49.008;8.390;2022-11-04T17:27:48;13.95;;;5.78;;
27127;SDS011;14660;49.008;8.390;2022-11-04T17:30:16;9.40;;;4.05;;
27127;SDS011;14660;49.008;8.390;2022-11-04T17:32:44;6.38;;;3.53;;
27127;SDS011;14660;49.008;8.390;2022-11-04T17:35:12;5.28;;;2.05;;
27127;SDS011;14660;49.008;8.390;2022-11-04T17:37:40;5.18;;;2.95;;
27127;SDS011;14660;49.008;8.390;2022-11-04T17:40:14;4.57;;;2.55;;
27127;SDS011;14660;49.008;8.390;2022-11-04T17:42:50;5.38;;;2.40;;
27127;SDS011;14660;49.008;8.390;2022-11-04T17:45:36;5.70;;;2.53;;
27127;SDS011;14660;49.008;8.390;2022-11-04T17:48:03;4.57;;;1.85;;
27127;SDS011;14660;49.008;8.390;2022-11-04T17:50:31;9.48;;;3.33;;
27127;SDS011;14660;49.008;8.390;2022-11-04T17:52:59;5.50;;;2.42;;
27127;SDS011;14660;49.008;8.390;2022-11-04T17:55:27;4.47;;;2.00;;
27127;SDS011;14660;49.008;8.390;2022-11-04T17:57:55;4.78;;;2.22;;
27127;SDS011;14660;49.008;8.390;2022-11-04T18:00:21;4.18;;;2.08;;
27127;SDS011;14660;49.008;8.390;2022-11-04T18:02:54;6.70;;;2.55;;
27127;SDS011;14660;49.008;8.390;2022-11-04T18:05:21;4.72;;;2.53;;
27127;SDS011;14660;49.008;8.390;2022-11-04T18:07:50;6.50;;;2.72;;
27127;SDS011;14660;49.008;8.390;2022-11-04T18:10:19;2.67;;;1.77;;
27127;SDS011;14660;49.008;8.390;2022-11-04T18:12:47;4.43;;;2.25;;
27127;SDS011;14660;49.008;8.390;2022-11-04T18:15:14;5.40;;;1.77;;
27127;SDS011;14660;49.008;8.390;2022-11-04T18:17:43;3.08;;;2.10;;
27127;SDS011;14660;49.008;8.390;2022-11-04T18:20:11;6.97;;;2.10;;
27127;SDS011;14660;49.008;8.390;2022-11-04T18:22:41;2.67;;;1.83;;
27127;SDS011;14660;49.008;8.390;2022-11-04T18:25:11;4.03;;;2.03;;
27127;SDS011;14660;49.008;8.390;2022-11-04T18:27:41;6.13;;;3.10;;
27127;SDS011;14660;49.008;8.390;2022-11-04T18:30:08;4.93;;;2.70;;
27127;SDS011;14660;49.008;8.390;2022-11-04T18:32:34;4.00;;;2.28;;
27127;SDS011;14660;49.008;8.390;2022-11-04T18:35:02;3.78;;;3.28;;
27127;SDS011;14660;49.008;8.390;2022-11-04T18:37:29;4.45;;;2.80;;
27127;SDS011;14660;49.008;8.390;2022-11-04T18:39:56;7.97;;;2.95;;
27127;SDS011;14660;49.008;8.390;2022-11-04T18:42:22;7.75;;;3.22;;
27127;SDS011;14660;49.008;8.390;2022-11-04T18:44:50;5.63;;;3.05;;
27127;SDS011;14660;49.008;8.390;2022-11-04T18:47:17;6.50;;;3.10;;
27127;SDS011;14660;49.008;8.390;2022-11-04T18:49:45;2.97;;;2.30;;
27127;SDS011;14660;49.008;8.390;2022-11-04T18:52:12;4.47;;;2.47;;
27127;SDS011;14660;49.008;8.390;2022-11-04T18:54:41;5.53;;;3.08;;
27127;SDS011;14660;49.008;8.390;2022-11-04T18:57:08;5.20;;;2.80;;
27127;SDS011;14660;49.008;8.390;2022-11-04T18:59:37;5.30;;;2.55;;
27127;SDS011;14660;49.008;8.390;2022-11-04T19:02:04;9.30;;;2.70;;
27127;SDS011;14660;49.008;8.390;2022-11-04T19:04:33;5.95;;;2.65;;
27127;SDS011;14660;49.008;8.390;2022-11-04T19:07:00;4.10;;;2.65;;
27127;SDS011;14660;49.008;8.390;2022-11-04T19:09:29;5.45;;;2.65;;
27127;SDS011;14660;49.008;8.390;2022-11-04T19:11:56;6.53;;;2.85;;
27127;SDS011;14660;49.008;8.390;2022-11-04T19:14:41;6.32;;;2.88;;
27127;SDS011;14660;49.008;8.390;2022-11-04T19:17:08;9.52;;;3.72;;
27127;SDS011;14660;49.008;8.390;2022-11-04T19:19:35;5.65;;;3.38;;
27127;SDS011;14660;49.008;8.390;2022-11-04T19:22:02;10.07;;;3.92;;
27127;SDS011;14660;49.008;8.390;2022-11-04T19:24:29;5.15;;;3.65;;
27127;SDS011;14660;49.008;8.390;2022-11-04T19:26:55;6.05;;;3.28;;
27127;SDS011;14660;49.008;8.390;2022-11-04T19:29:22;9.65;;;4.82;;
27127;SDS011;14660;49.008;8.390;2022-11-04T19:31:57;7.50;;;4.63;;
27127;SDS011;14660;49.008;8.390;2022-11-04T19:34:25;8.68;;;3.67;;
27127;SDS011;14660;49.008;8.390;2022-11-04T19:36:51;7.68;;;4.00;;
27127;SDS011;14660;49.008;8.390;2022-11-04T19:39:18;9.25;;;4.85;;
27127;SDS011;14660;49.008;8.390;2022-11-04T19:41:46;6.40;;;4.38;;
27127;SDS011;14660;49.008;8.390;2022-11-04T19:44:30;7.72;;;4.13;;
27127;SDS011;14660;49.008;8.390;2022-11-04T19:46:56;8.05;;;4.15;;
27127;SDS011;14660;49.008;8.390;2022-11-04T19:49:24;6.53;;;4.03;;
27127;SDS011;14660;49.008;8.390;2022-11-04T19:51:57;6.13;;;3.70;;
27127;SDS011;14660;49.008;8.390;2022-11-04T19:54:27;6.28;;;3.95;;
27127;SDS011;14660;49.008;8.390;2022-11-04T19:56:54;6.85;;;3.72;;
27127;SDS011;14660;49.008;8.390;2022-11-04T19:59:21;7.60;;;3.75;;
27127;SDS011;14660;49.008;8.390;2022-11-04T20:01:48;8.57;;;4.78;;